Terminal Aerodrome Forecast
Issued by NWS Cleveland, OH

Home | Current Version | Previous Version | Graphics & Text | Print | Product List | Glossary Off
Versions: 1 2 3 4 5 6 7 8 9 10 11 12 13 14 15 16

000
FTUS41 KCLE 212121 AAA
TAFMFD
TAF AMD
KMFD 212121Z 2121/2218 22010KT P6SM VCTS BKN060CB
      TEMPO 2122/2123 25012G22KT 3SM -TSRA BKN030CB
     FM220000 21006KT P6SM SCT200
     FM221200 21007KT P6SM SCT050 BKN120=

USA.gov is the U.S. government's official web portal to all federal, state and local government web resources and services.